createdAt,value
2018-12-25T08:25:06.824Z,8.78
2018-12-25T08:27:35.140Z,9.19
2018-12-25T08:30:04.121Z,10.20
2018-12-25T11:16:18.374Z,8.76
2018-12-25T11:18:49.235Z,9.96
2018-12-25T11:21:17.020Z,10.08
2018-12-25T11:23:45.788Z,10.95
2018-12-25T11:26:14.098Z,10.54
2018-12-25T11:28:42.600Z,9.78
2018-12-25T11:31:10.965Z,9.85
2018-12-25T11:33:39.627Z,9.99
2018-12-25T11:36:07.929Z,10.16
2018-12-25T11:38:36.594Z,10.40
2018-12-25T11:41:04.981Z,10.29
2018-12-25T11:43:33.316Z,10.02
2018-12-25T11:46:01.630Z,10.13
2018-12-25T11:48:30.322Z,9.51
2018-12-25T11:50:58.627Z,9.86
2018-12-25T11:53:26.952Z,10.16
2018-12-25T11:55:55.259Z,9.84
2018-12-25T11:58:23.589Z,9.64
2018-12-25T12:00:52.232Z,9.75
2018-12-25T12:03:20.551Z,9.24
2018-12-25T12:05:48.852Z,9.85
2018-12-25T12:08:17.170Z,10.11
2018-12-25T12:10:45.859Z,9.69
2018-12-25T12:13:14.183Z,10.23
2018-12-25T12:15:42.489Z,9.32
2018-12-25T12:18:10.817Z,10.29
2018-12-25T12:20:39.125Z,9.86
2018-12-25T12:23:07.770Z,10.80
2018-12-25T12:25:36.148Z,10.69
2018-12-25T12:28:04.845Z,10.31
2018-12-25T12:30:33.240Z,9.49
2018-12-25T12:33:01.914Z,10.12
2018-12-25T12:35:30.228Z,9.73
2018-12-25T12:37:58.523Z,10.04
2018-12-25T12:40:26.850Z,9.29
2018-12-25T12:42:55.151Z,8.78
2018-12-25T12:45:23.628Z,9.84
2018-12-25T12:47:52.012Z,9.65
2018-12-25T12:50:20.419Z,10.29
2018-12-25T12:52:48.797Z,9.90
2018-12-25T12:55:17.123Z,9.72
2018-12-25T12:57:45.532Z,9.53
2018-12-25T13:00:13.855Z,9.10
2018-12-25T13:02:42.239Z,9.14
2018-12-25T13:05:11.024Z,8.23
2018-12-25T13:07:39.604Z,9.10
2018-12-25T13:10:09.631Z,8.60
2018-12-25T13:12:38.183Z,8.51
2018-12-25T13:15:07.129Z,8.13
2018-12-25T13:17:35.526Z,8.88
2018-12-25T13:20:04.978Z,8.70
2018-12-25T13:22:33.303Z,9.11
2018-12-25T13:25:01.631Z,9.49
2018-12-25T13:27:30.022Z,8.75
2018-12-25T13:29:58.366Z,8.70
2018-12-25T13:32:26.659Z,9.48
2018-12-25T13:34:54.965Z,9.27
2018-12-25T13:37:23.297Z,9.61
2018-12-25T13:39:51.608Z,9.32
2018-12-25T13:42:20.074Z,10.58
2018-12-25T13:44:48.381Z,10.64
2018-12-25T13:47:17.151Z,11.03
2018-12-25T13:49:45.460Z,9.54
2018-12-25T13:52:13.838Z,9.03
2018-12-25T13:54:42.159Z,9.84
2018-12-25T13:57:10.558Z,9.49
2018-12-25T13:59:39.362Z,9.78
2018-12-25T14:02:07.673Z,10.09
2018-12-25T14:04:36.163Z,9.95
2018-12-25T14:07:04.470Z,10.58
2018-12-25T14:09:32.802Z,9.58
2018-12-25T14:12:01.109Z,10.52
2018-12-25T14:14:29.601Z,10.83
2018-12-25T14:16:57.903Z,10.09
2018-12-25T14:19:26.625Z,9.77
2018-12-25T14:21:55.012Z,10.91
2018-12-25T14:24:23.502Z,11.35
2018-12-25T14:26:52.180Z,10.66
2018-12-25T14:29:20.478Z,9.69
2018-12-25T14:31:48.880Z,10.75
2018-12-25T14:34:17.187Z,10.20
2018-12-25T14:36:45.906Z,10.37
2018-12-25T14:39:14.290Z,10.44
2018-12-25T14:41:42.609Z,9.78
2018-12-25T14:44:10.914Z,9.62
2018-12-25T14:46:39.235Z,9.66
2018-12-25T14:49:07.544Z,9.46
2018-12-25T14:51:35.858Z,9.27
2018-12-25T14:54:04.255Z,10.15
2018-12-25T14:56:32.573Z,9.25
2018-12-25T14:59:00.878Z,9.60
2018-12-25T15:01:29.196Z,9.66
2018-12-25T15:03:57.497Z,9.63
2018-12-25T15:06:25.820Z,9.37
2018-12-25T15:08:54.126Z,10.29
2018-12-25T15:11:22.448Z,9.87
2018-12-25T15:13:50.783Z,9.97
2018-12-25T15:16:19.094Z,8.95
2018-12-25T15:18:47.412Z,9.14
2018-12-25T15:21:16.000Z,9.38
2018-12-25T15:23:44.327Z,10.19
2018-12-25T15:26:12.625Z,9.54
2018-12-25T15:28:40.950Z,10.34
2018-12-25T15:31:09.588Z,10.36
2018-12-25T15:33:37.915Z,9.26
2018-12-25T15:36:06.768Z,9.54
2018-12-25T15:38:35.091Z,10.20
2018-12-25T15:41:03.407Z,10.99
2018-12-25T15:43:31.715Z,10.57
2018-12-25T15:46:00.041Z,9.73
2018-12-25T15:48:28.356Z,10.00
2018-12-25T15:50:56.666Z,9.70
2018-12-25T15:53:24.970Z,10.84
2018-12-25T15:55:53.300Z,10.43
2018-12-25T15:58:21.609Z,10.12
2018-12-25T16:00:50.268Z,9.83
2018-12-25T16:03:18.962Z,10.37
2018-12-25T16:05:47.488Z,9.64
2018-12-25T16:08:15.797Z,10.42
2018-12-25T16:10:44.219Z,9.94
2018-12-25T16:13:12.626Z,9.55
2018-12-25T16:15:41.012Z,10.22
2018-12-25T16:18:09.338Z,10.25
2018-12-25T16:20:37.946Z,9.92
2018-12-25T16:23:06.400Z,11.00
2018-12-25T16:25:34.828Z,10.38
2018-12-25T16:28:03.150Z,10.40
2018-12-25T16:30:31.782Z,9.58
2018-12-25T16:33:00.064Z,9.99
2018-12-25T16:35:28.365Z,9.76
2018-12-25T16:37:56.798Z,9.25
2018-12-25T16:40:25.108Z,9.94
2018-12-25T16:42:53.416Z,9.39
2018-12-25T16:45:21.747Z,9.00
2018-12-25T16:47:50.051Z,9.39
2018-12-25T16:50:18.387Z,9.04
2018-12-25T16:52:46.700Z,9.85
2018-12-25T16:55:15.035Z,9.45
2018-12-25T16:57:43.343Z,9.37
2018-12-25T17:00:11.658Z,9.80
2018-12-25T17:02:40.026Z,8.50
2018-12-25T17:05:08.413Z,9.98
2018-12-25T17:07:36.715Z,9.84
2018-12-25T17:10:06.886Z,9.37
2018-12-25T17:12:35.198Z,9.83
2018-12-25T17:15:03.590Z,9.49
2018-12-25T17:17:32.250Z,9.59
2018-12-25T17:20:00.549Z,9.77
2018-12-25T17:22:29.157Z,9.17
2018-12-25T17:24:57.569Z,8.73
2018-12-25T17:27:28.010Z,8.88
2018-12-25T17:29:56.305Z,9.88
2018-12-25T17:32:24.620Z,9.24
2018-12-25T17:34:52.999Z,9.28
2018-12-25T17:37:21.432Z,10.00
2018-12-25T17:39:49.803Z,9.48
2018-12-25T17:42:18.130Z,10.42
2018-12-25T17:44:46.431Z,9.80
2018-12-25T17:47:14.759Z,9.78
2018-12-25T17:49:43.367Z,9.65
2018-12-25T17:52:11.698Z,9.55
2018-12-25T17:54:40.333Z,9.32
2018-12-25T17:57:08.665Z,9.42
2018-12-25T17:59:36.976Z,9.18
2018-12-25T18:02:05.693Z,9.19
2018-12-25T18:04:33.992Z,9.12
2018-12-25T18:07:02.657Z,9.00
2018-12-25T18:09:30.973Z,9.72
2018-12-25T18:11:59.295Z,9.28
2018-12-25T18:14:27.692Z,9.14
2018-12-25T18:16:56.001Z,9.49
2018-12-25T18:19:24.319Z,9.32
2018-12-25T18:21:52.697Z,9.73
2018-12-25T18:24:21.027Z,9.19
2018-12-25T18:26:49.399Z,9.38
2018-12-25T18:29:17.744Z,9.53
2018-12-25T18:31:46.131Z,9.12
2018-12-25T18:34:14.454Z,9.03
2018-12-25T18:36:42.835Z,9.07
2018-12-25T18:39:11.162Z,9.51
2018-12-25T18:41:39.571Z,8.99
2018-12-25T18:44:07.878Z,9.12
2018-12-25T18:46:36.284Z,8.97
2018-12-25T18:49:04.680Z,8.99
2018-12-25T18:51:33.003Z,8.66
2018-12-25T18:54:01.310Z,8.99
2018-12-25T18:56:29.734Z,8.80
2018-12-25T18:58:58.362Z,9.09
2018-12-25T19:01:26.990Z,9.05
2018-12-25T19:03:56.046Z,8.66
2018-12-25T19:06:24.373Z,9.09
2018-12-25T19:08:52.673Z,9.01
2018-12-25T19:11:20.978Z,8.62
2018-12-25T19:13:49.317Z,8.44
2018-12-25T19:16:17.710Z,9.00
2018-12-25T19:18:46.036Z,8.29
2018-12-25T19:21:14.342Z,9.06
2018-12-25T19:23:45.855Z,9.07
2018-12-25T19:26:14.176Z,9.08
2018-12-25T19:28:42.509Z,9.09
2018-12-25T19:31:10.854Z,8.81
2018-12-25T19:33:39.547Z,8.70
2018-12-25T19:36:07.922Z,8.54
2018-12-25T19:38:36.240Z,8.49
2018-12-25T19:41:04.583Z,9.44
2018-12-25T19:43:33.230Z,9.22
2018-12-25T19:46:02.003Z,9.34
2018-12-25T19:48:30.398Z,9.03
2018-12-25T19:50:59.140Z,8.18
2018-12-25T19:53:27.518Z,8.17
2018-12-25T19:55:55.835Z,8.38
2018-12-25T19:58:24.225Z,7.92
2018-12-25T20:00:52.632Z,8.42
2018-12-25T20:03:21.307Z,8.27
2018-12-25T20:06:13.643Z,8.26
2018-12-25T20:08:53.938Z,8.01
2018-12-25T20:11:46.240Z,8.18
2018-12-25T20:14:29.342Z,8.68
2018-12-25T20:17:06.803Z,8.22
2018-12-25T20:19:50.247Z,8.32
2018-12-25T20:22:41.086Z,8.35
2018-12-25T20:25:35.725Z,8.27
2018-12-25T20:28:19.073Z,7.91
2018-12-25T20:31:09.996Z,8.66
2018-12-25T20:33:44.344Z,9.01
2018-12-25T20:36:21.692Z,7.92
2018-12-25T20:39:07.838Z,8.02
2018-12-25T20:42:03.324Z,8.50
2018-12-25T20:44:43.566Z,8.41
2018-12-25T20:47:23.730Z,8.25
2018-12-25T20:50:19.138Z,8.15
2018-12-25T20:53:05.613Z,7.81
2018-12-25T20:55:42.625Z,8.61
2018-12-25T20:58:23.488Z,7.85
2018-12-25T21:00:54.984Z,8.05
2018-12-25T21:03:38.783Z,8.48
2018-12-25T21:06:22.050Z,8.43
2018-12-25T21:09:21.115Z,8.91
2018-12-25T21:12:01.370Z,8.20
2018-12-25T21:14:47.459Z,8.34
2018-12-25T21:17:46.560Z,7.85
2018-12-25T21:20:30.125Z,8.14
2018-12-25T21:23:34.625Z,8.53
2018-12-25T21:26:39.149Z,8.46
2018-12-25T21:29:07.591Z,9.23
2018-12-25T21:31:35.894Z,8.04
2018-12-25T21:34:04.280Z,7.77
2018-12-25T21:36:32.678Z,8.76
2018-12-25T21:39:01.419Z,9.02
2018-12-25T21:41:29.824Z,8.67
2018-12-25T21:43:58.198Z,8.92
2018-12-25T21:46:26.602Z,8.74
2018-12-25T21:48:54.901Z,8.84
2018-12-25T21:51:23.895Z,8.63
2018-12-25T21:53:52.275Z,8.79
2018-12-25T21:56:20.667Z,8.47
2018-12-25T21:58:49.048Z,8.85
2018-12-25T22:01:17.372Z,9.38
2018-12-25T22:03:45.742Z,8.26
2018-12-25T22:06:14.065Z,9.41
2018-12-25T22:08:42.373Z,9.20
2018-12-25T22:11:10.706Z,9.61
2018-12-25T22:13:39.012Z,9.86
2018-12-25T22:16:07.424Z,9.65
2018-12-25T22:18:36.282Z,8.82
2018-12-25T22:21:04.680Z,9.00
2018-12-25T22:23:32.984Z,9.13
2018-12-25T22:26:01.351Z,8.76
2018-12-25T22:28:30.164Z,8.67
2018-12-25T22:30:58.483Z,9.35
2018-12-25T22:33:27.115Z,8.68
2018-12-25T22:35:55.428Z,8.47
2018-12-25T22:38:23.922Z,9.06
2018-12-25T22:40:52.229Z,8.54
2018-12-25T22:43:20.553Z,8.47
2018-12-25T22:45:49.233Z,8.89
2018-12-25T22:48:17.573Z,8.24
2018-12-25T22:50:45.903Z,8.41
2018-12-25T22:53:14.207Z,8.53
2018-12-25T22:55:42.511Z,8.64
2018-12-25T22:58:10.824Z,8.30
2018-12-25T23:00:39.352Z,8.68
2018-12-25T23:03:07.657Z,8.51
2018-12-25T23:05:35.980Z,8.09
2018-12-25T23:08:04.288Z,8.39
2018-12-25T23:10:32.621Z,8.17
2018-12-25T23:13:00.925Z,8.48
2018-12-25T23:15:29.264Z,7.63
2018-12-25T23:17:57.639Z,8.32
2018-12-25T23:20:28.931Z,9.16
2018-12-25T23:22:56.693Z,8.24
2018-12-25T23:25:25.386Z,8.64
2018-12-25T23:27:53.709Z,8.21
2018-12-25T23:30:22.352Z,8.27
2018-12-25T23:32:50.683Z,8.38
2018-12-25T23:35:19.066Z,9.22
2018-12-25T23:37:47.393Z,9.16
2018-12-25T23:40:15.695Z,8.79
2018-12-25T23:42:44.093Z,8.56
2018-12-25T23:45:12.407Z,9.06
2018-12-25T23:47:41.061Z,8.53
2018-12-25T23:50:09.368Z,8.42
2018-12-25T23:52:37.797Z,8.61
2018-12-25T23:55:06.210Z,8.25
2018-12-25T23:57:34.554Z,8.48
